createdAt,value
2018-06-01T00:00:53.427Z,0
2018-06-01T00:02:54.844Z,0
2018-06-01T00:04:56.279Z,0
2018-06-01T00:06:57.839Z,0
2018-06-01T00:08:59.849Z,0
2018-06-01T00:11:42.306Z,0
2018-06-01T00:13:43.732Z,0
2018-06-01T00:15:45.343Z,0
2018-06-01T00:17:46.773Z,0
2018-06-01T00:20:29.546Z,0
2018-06-01T00:22:30.968Z,0
2018-06-01T00:24:32.400Z,0
2018-06-01T00:26:33.836Z,0
2018-06-01T00:28:35.405Z,0
2018-06-01T00:31:17.831Z,0
2018-06-01T00:33:19.259Z,0
2018-06-01T00:35:20.691Z,0
2018-06-01T00:37:22.160Z,0
2018-06-01T00:39:23.541Z,0
2018-06-01T00:41:25.184Z,0
2018-06-01T00:43:26.621Z,0
2018-06-01T00:45:28.365Z,0
2018-06-01T00:47:29.842Z,0
2018-06-01T00:49:31.273Z,0
2018-06-01T00:51:32.712Z,0
2018-06-01T00:53:34.158Z,0
2018-06-01T00:55:35.618Z,0
2018-06-01T00:57:37.140Z,0
2018-06-01T00:59:38.920Z,0
2018-06-01T01:01:40.803Z,0
2018-06-01T01:03:42.569Z,0
2018-06-01T01:05:44.418Z,0
2018-06-01T01:07:46.246Z,0
2018-06-01T01:09:48.082Z,0
2018-06-01T01:11:49.626Z,0
2018-06-01T01:13:51.201Z,0
2018-06-01T01:15:52.723Z,0
2018-06-01T01:17:54.255Z,0
2018-06-01T01:19:55.799Z,0
2018-06-01T01:21:57.311Z,0
2018-06-01T01:23:58.847Z,0
2018-06-01T01:26:00.334Z,0
2018-06-01T01:28:01.881Z,0
2018-06-01T01:30:03.397Z,0
2018-06-01T01:32:04.954Z,0
2018-06-01T01:34:06.447Z,0
2018-06-01T01:36:08.257Z,0
2018-06-01T01:38:09.813Z,0
2018-06-01T01:40:11.315Z,0
2018-06-01T01:42:12.791Z,0
2018-06-01T01:44:14.335Z,0
2018-06-01T01:46:15.847Z,0
2018-06-01T01:48:17.290Z,0
2018-06-01T01:50:18.873Z,0
2018-06-01T01:52:20.336Z,0
2018-06-01T01:54:21.881Z,0
2018-06-01T01:56:23.370Z,0
2018-06-01T01:58:24.934Z,0
2018-06-01T02:00:26.785Z,0
2018-06-01T02:02:28.424Z,0
2018-06-01T02:04:30.195Z,0
2018-06-01T02:06:31.748Z,0
2018-06-01T02:08:33.337Z,0
2018-06-01T02:10:35.209Z,0
2018-06-01T02:12:36.771Z,0
2018-06-01T02:14:38.260Z,0
2018-06-01T02:16:39.840Z,0
2018-06-01T02:18:41.368Z,0
2018-06-01T02:21:23.801Z,0
2018-06-01T02:23:25.230Z,0
2018-06-01T02:25:26.655Z,0
2018-06-01T02:27:28.163Z,0
2018-06-01T02:29:29.588Z,0
2018-06-01T02:32:12.007Z,0
2018-06-01T02:34:13.429Z,0
2018-06-01T02:36:14.864Z,0
2018-06-01T02:38:16.404Z,0
2018-06-01T02:40:17.876Z,0
2018-06-01T02:42:19.466Z,0
2018-06-01T02:44:21.298Z,0
2018-06-01T02:46:22.863Z,0
2018-06-01T02:48:24.411Z,0
2018-06-01T02:51:06.843Z,0
2018-06-01T02:53:08.248Z,0
2018-06-01T02:55:09.675Z,0
2018-06-01T02:57:11.101Z,0
2018-06-01T02:59:12.533Z,4
2018-06-01T03:01:55.289Z,0
2018-06-01T03:03:56.706Z,4
2018-06-01T03:05:58.172Z,4
2018-06-01T03:07:59.746Z,8
2018-06-01T03:10:43.389Z,8
2018-06-01T03:12:44.806Z,4
2018-06-01T03:14:46.602Z,8
2018-06-01T03:16:48.327Z,8
2018-06-01T03:18:49.933Z,12
2018-06-01T03:20:51.365Z,12
2018-06-01T03:22:52.973Z,16
2018-06-01T03:24:54.438Z,20
2018-06-01T03:26:55.879Z,24
2018-06-01T03:28:57.768Z,24
2018-06-01T03:31:40.411Z,32
2018-06-01T03:33:42.100Z,36
2018-06-01T03:35:43.639Z,44
2018-06-01T03:37:45.059Z,48
2018-06-01T03:40:27.504Z,60
2018-06-01T03:42:29.098Z,68
2018-06-01T03:44:30.581Z,80
2018-06-01T03:46:31.997Z,88
2018-06-01T03:48:33.418Z,100
2018-06-01T03:51:14.877Z,116
2018-06-01T03:53:16.303Z,128
2018-06-01T03:55:17.727Z,136
2018-06-01T03:57:19.165Z,148
2018-06-01T03:59:21.002Z,172
2018-06-01T04:01:22.883Z,188
2018-06-01T04:03:24.313Z,204
2018-06-01T04:05:26.043Z,224
2018-06-01T04:07:27.464Z,236
2018-06-01T04:09:29.025Z,248
2018-06-01T04:11:30.509Z,260
2018-06-01T04:13:31.977Z,268
2018-06-01T04:15:33.721Z,272
2018-06-01T04:17:35.615Z,280
2018-06-01T04:19:37.173Z,280
2018-06-01T04:21:39.058Z,280
2018-06-01T04:23:40.586Z,288
2018-06-01T04:25:42.359Z,288
2018-06-01T04:27:44.046Z,300
2018-06-01T04:29:45.512Z,312
2018-06-01T04:31:47.406Z,328
2018-06-01T04:33:49.406Z,336
2018-06-01T04:35:51.206Z,348
2018-06-01T04:37:52.737Z,360
2018-06-01T04:39:54.234Z,376
2018-06-01T04:41:55.951Z,388
2018-06-01T04:43:57.464Z,408
2018-06-01T04:45:59.302Z,432
2018-06-01T04:48:00.848Z,472
2018-06-01T04:50:02.353Z,524
2018-06-01T04:52:03.875Z,580
2018-06-01T04:54:05.418Z,648
2018-06-01T04:56:06.993Z,724
2018-06-01T04:58:08.517Z,820
2018-06-01T05:00:10.038Z,896
2018-06-01T05:02:11.609Z,964
2018-06-01T05:04:13.385Z,1016
2018-06-01T05:06:14.931Z,1052
2018-06-01T05:08:16.452Z,1044
2018-06-01T05:10:17.947Z,1040
2018-06-01T05:12:19.405Z,916
2018-06-01T05:14:21.174Z,1004
2018-06-01T05:16:22.733Z,1148
2018-06-01T05:18:24.280Z,1328
2018-06-01T05:20:25.776Z,1416
2018-06-01T05:22:27.317Z,1508
2018-06-01T05:24:28.849Z,1700
2018-06-01T05:26:30.299Z,2516
2018-06-01T05:28:31.836Z,1988
2018-06-01T05:30:33.367Z,2064
2018-06-01T05:32:34.896Z,3396
2018-06-01T05:34:36.440Z,3684
2018-06-01T05:36:38.000Z,2256
2018-06-01T05:38:39.530Z,3524
2018-06-01T05:40:41.062Z,4896
2018-06-01T05:42:42.848Z,4604
2018-06-01T05:44:44.360Z,3184
2018-06-01T05:46:46.208Z,2508
2018-06-01T05:48:47.705Z,2680
2018-06-01T05:51:29.150Z,4032
2018-06-01T05:53:30.669Z,6368
2018-06-01T05:55:32.421Z,6728
2018-06-01T05:57:33.828Z,6240
2018-06-01T05:59:35.263Z,5492
2018-06-01T06:01:36.709Z,4808
2018-06-01T06:03:38.433Z,4772
2018-06-01T06:05:39.867Z,5412
2018-06-01T06:07:41.403Z,4844
2018-06-01T06:09:42.845Z,3776
2018-06-01T06:12:25.427Z,3000
2018-06-01T06:14:26.889Z,2400
2018-06-01T06:16:28.543Z,1632
2018-06-01T06:18:30.206Z,984
2018-06-01T06:21:12.930Z,848
2018-06-01T06:23:14.352Z,720
2018-06-01T06:25:15.785Z,688
2018-06-01T06:27:17.217Z,828
2018-06-01T06:29:18.650Z,696
2018-06-01T06:32:01.109Z,772
2018-06-01T06:34:02.529Z,1364
2018-06-01T06:36:03.965Z,2684
2018-06-01T06:38:05.398Z,6132
2018-06-01T06:40:47.855Z,6668
2018-06-01T06:42:49.275Z,5900
2018-06-01T06:44:50.711Z,2776
2018-06-01T06:46:52.148Z,1656
2018-06-01T06:48:53.604Z,1044
2018-06-01T06:51:36.508Z,864
2018-06-01T06:53:38.286Z,840
2018-06-01T06:55:40.381Z,876
2018-06-01T06:57:42.395Z,940
2018-06-01T06:59:43.816Z,1032
2018-06-01T07:01:45.252Z,1156
2018-06-01T07:03:46.935Z,1272
2018-06-01T07:05:48.382Z,1452
2018-06-01T07:07:49.831Z,1812
2018-06-01T07:09:51.942Z,2320
2018-06-01T07:11:54.302Z,2692
2018-06-01T07:13:55.772Z,2576
2018-06-01T07:15:57.665Z,2872
2018-06-01T07:17:59.187Z,2692
2018-06-01T07:20:00.701Z,2420
2018-06-01T07:22:02.237Z,2024
2018-06-01T07:24:03.811Z,1896
2018-06-01T07:26:05.328Z,2052
2018-06-01T07:28:06.897Z,2412
2018-06-01T07:30:08.381Z,2628
2018-06-01T07:32:09.880Z,2504
2018-06-01T07:34:11.385Z,2276
2018-06-01T07:36:12.952Z,2156
2018-06-01T07:38:14.717Z,2560
2018-06-01T07:40:16.213Z,2724
2018-06-01T07:42:17.732Z,2604
2018-06-01T07:44:20.740Z,2628
2018-06-01T07:46:22.250Z,2488
2018-06-01T07:48:24.166Z,2184
2018-06-01T07:50:26.707Z,2300
2018-06-01T07:52:28.295Z,2188
2018-06-01T07:54:29.879Z,1740
2018-06-01T07:56:31.556Z,1576
2018-06-01T07:58:33.987Z,1532
2018-06-01T08:00:35.562Z,1536
2018-06-01T08:02:56.387Z,1396
2018-06-01T08:04:59.005Z,1228
2018-06-01T08:07:00.489Z,1172
2018-06-01T08:09:02.068Z,1068
2018-06-01T08:11:03.601Z,988
2018-06-01T08:13:05.426Z,920
2018-06-01T08:15:07.277Z,868
2018-06-01T08:17:09.125Z,832
2018-06-01T08:19:10.601Z,804
2018-06-01T08:21:12.120Z,776
2018-06-01T08:23:14.608Z,736
2018-06-01T08:25:16.098Z,712
2018-06-01T08:27:17.733Z,688
2018-06-01T08:29:19.303Z,684
2018-06-01T08:32:02.089Z,680
2018-06-01T08:34:04.801Z,676
2018-06-01T08:36:06.174Z,660
2018-06-01T08:38:07.740Z,652
2018-06-01T08:40:09.207Z,624
2018-06-01T08:42:51.840Z,496
2018-06-01T08:44:53.297Z,412
2018-06-01T08:46:54.725Z,376
2018-06-01T08:48:56.249Z,392
2018-06-01T08:51:38.670Z,456
2018-06-01T08:53:40.259Z,496
2018-06-01T08:55:41.693Z,504
2018-06-01T08:57:43.140Z,536
2018-06-01T08:59:44.565Z,532
2018-06-01T09:01:46.009Z,528
2018-06-01T09:03:47.444Z,524
2018-06-01T09:05:48.880Z,512
2018-06-01T09:07:50.314Z,496
2018-06-01T09:09:51.756Z,492
2018-06-01T09:12:34.164Z,484
2018-06-01T09:14:35.601Z,480
2018-06-01T09:16:37.036Z,444
2018-06-01T09:18:38.471Z,480
2018-06-01T09:20:39.908Z,468
2018-06-01T09:22:41.343Z,468
2018-06-01T09:24:42.780Z,500
2018-06-01T09:26:44.225Z,504
2018-06-01T09:28:45.646Z,508
2018-06-01T09:30:47.078Z,496
2018-06-01T09:32:48.515Z,496
2018-06-01T09:34:49.949Z,492
2018-06-01T09:36:51.385Z,496
2018-06-01T09:38:52.817Z,504
2018-06-01T09:40:54.253Z,508
2018-06-01T09:42:55.692Z,512
2018-06-01T09:44:57.122Z,516
2018-06-01T09:46:58.657Z,512
2018-06-01T09:49:00.096Z,492
2018-06-01T09:51:01.540Z,468
2018-06-01T09:53:02.967Z,428
2018-06-01T09:55:04.412Z,408
2018-06-01T09:57:05.861Z,384
2018-06-01T09:59:07.333Z,376
2018-06-01T10:01:08.907Z,372
2018-06-01T10:03:10.460Z,396
2018-06-01T10:05:11.979Z,444
2018-06-01T10:07:13.435Z,496
2018-06-01T10:09:15.025Z,544
2018-06-01T10:11:16.654Z,588
2018-06-01T10:13:18.144Z,624
2018-06-01T10:15:19.751Z,656
2018-06-01T10:17:21.254Z,700
2018-06-01T10:19:22.792Z,760
2018-06-01T10:21:24.356Z,808
2018-06-01T10:23:26.036Z,848
2018-06-01T10:25:27.591Z,892
2018-06-01T10:27:29.237Z,912
2018-06-01T10:29:31.120Z,916
2018-06-01T10:31:32.707Z,860
2018-06-01T10:33:34.226Z,816
2018-06-01T10:35:35.723Z,800
2018-06-01T10:37:37.353Z,784
2018-06-01T10:39:38.871Z,764
2018-06-01T10:41:40.461Z,728
2018-06-01T10:43:41.952Z,672
2018-06-01T10:45:43.471Z,608
2018-06-01T10:47:44.968Z,548
2018-06-01T10:49:46.738Z,508
2018-06-01T10:51:48.461Z,484
2018-06-01T10:53:49.970Z,484
2018-06-01T10:55:51.615Z,496
2018-06-01T10:57:53.249Z,520
2018-06-01T10:59:55.121Z,572
2018-06-01T11:02:37.901Z,700
2018-06-01T11:04:39.591Z,792
2018-06-01T11:06:41.155Z,860
2018-06-01T11:08:42.590Z,920
2018-06-01T11:10:44.017Z,964
2018-06-01T11:13:27.125Z,1012
2018-06-01T11:15:28.959Z,1036
2018-06-01T11:17:30.649Z,1068
2018-06-01T11:19:32.128Z,1100
2018-06-01T11:21:33.689Z,1116
2018-06-01T11:23:35.112Z,1128
2018-06-01T11:25:36.613Z,1144
2018-06-01T11:27:38.335Z,1180
2018-06-01T11:29:40.144Z,1248
2018-06-01T11:32:22.596Z,1396
2018-06-01T11:34:24.007Z,1588
2018-06-01T11:36:25.451Z,1848
2018-06-01T11:38:26.942Z,1736
2018-06-01T11:40:28.359Z,1808
2018-06-01T11:42:29.819Z,2036
2018-06-01T11:44:31.261Z,2132
2018-06-01T11:46:32.712Z,2284
2018-06-01T11:48:34.146Z,2868
2018-06-01T11:50:35.702Z,2100
2018-06-01T11:53:18.460Z,2012
2018-06-01T11:55:19.878Z,2072
2018-06-01T11:57:21.317Z,2164
2018-06-01T11:59:22.903Z,2400
2018-06-01T12:01:24.550Z,1620
2018-06-01T12:03:26.025Z,1500
2018-06-01T12:05:27.617Z,1388
2018-06-01T12:07:29.224Z,1516
2018-06-01T12:09:30.660Z,1804
2018-06-01T12:11:32.176Z,1912
2018-06-01T12:13:33.656Z,1796
2018-06-01T12:15:35.157Z,1324
2018-06-01T12:17:36.816Z,1328
2018-06-01T12:19:38.263Z,1232
2018-06-01T12:21:39.965Z,1076
2018-06-01T12:23:41.427Z,1052
2018-06-01T12:25:42.978Z,1204
2018-06-01T12:27:44.425Z,1584
2018-06-01T12:29:45.868Z,2232
2018-06-01T12:31:47.310Z,2036
2018-06-01T12:33:48.740Z,2328
2018-06-01T12:35:50.176Z,1856
2018-06-01T12:37:51.625Z,2408
2018-06-01T12:39:53.187Z,2748
2018-06-01T12:41:54.695Z,2728
2018-06-01T12:43:56.415Z,2624
2018-06-01T12:45:57.871Z,1808
2018-06-01T12:47:59.311Z,1460
2018-06-01T12:50:00.806Z,1864
2018-06-01T12:52:02.242Z,1208
2018-06-01T12:54:03.831Z,972
2018-06-01T12:56:05.240Z,860
2018-06-01T12:58:06.676Z,764
2018-06-01T13:00:08.121Z,712
2018-06-01T13:02:09.556Z,676
2018-06-01T13:04:11.200Z,672
2018-06-01T13:06:12.853Z,672
2018-06-01T13:08:14.367Z,660
2018-06-01T13:10:15.896Z,652
2018-06-01T13:12:17.489Z,664
2018-06-01T13:14:19.167Z,696
2018-06-01T13:16:20.610Z,704
2018-06-01T13:18:22.039Z,724
2018-06-01T13:20:23.529Z,732
2018-06-01T13:22:25.020Z,764
2018-06-01T13:24:26.695Z,800
2018-06-01T13:26:28.141Z,840
2018-06-01T13:28:31.292Z,884
2018-06-01T13:30:32.729Z,920
2018-06-01T13:32:34.307Z,920
2018-06-01T13:34:36.037Z,856
2018-06-01T13:36:37.859Z,732
2018-06-01T13:38:39.415Z,672
2018-06-01T13:40:40.872Z,664
2018-06-01T13:42:42.536Z,692
2018-06-01T13:44:44.019Z,728
2018-06-01T13:46:45.679Z,764
2018-06-01T13:48:47.220Z,768
2018-06-01T13:50:48.661Z,768
2018-06-01T13:52:50.361Z,784
2018-06-01T13:54:51.806Z,824
2018-06-01T13:56:53.310Z,852
2018-06-01T13:58:55.074Z,944
2018-06-01T14:00:56.823Z,1044
2018-06-01T14:03:39.315Z,1292
2018-06-01T14:05:40.757Z,1752
2018-06-01T14:07:42.191Z,1712
2018-06-01T14:09:43.670Z,1252
2018-06-01T14:11:45.119Z,1520
2018-06-01T14:13:46.753Z,1724
2018-06-01T14:15:48.218Z,1720
2018-06-01T14:17:49.681Z,1748
2018-06-01T14:19:51.130Z,1756
2018-06-01T14:22:33.558Z,1824
2018-06-01T14:24:34.997Z,1832
2018-06-01T14:26:36.465Z,1832
2018-06-01T14:28:37.881Z,1484
2018-06-01T14:30:39.316Z,1872
2018-06-01T14:32:40.751Z,1676
2018-06-01T14:34:42.192Z,1564
2018-06-01T14:36:43.625Z,1656
2018-06-01T14:38:45.068Z,1680
2018-06-01T14:40:46.657Z,1620
2018-06-01T14:42:47.953Z,1512
2018-06-01T14:44:49.392Z,1536
2018-06-01T14:46:50.887Z,1420
2018-06-01T14:48:52.345Z,1460
2018-06-01T14:50:53.810Z,1140
2018-06-01T14:53:36.313Z,1068
2018-06-01T14:55:37.751Z,1048
2018-06-01T14:57:39.184Z,1084
2018-06-01T14:59:40.623Z,988
2018-06-01T15:01:42.089Z,956
2018-06-01T15:03:43.528Z,992
2018-06-01T15:05:44.997Z,888
2018-06-01T15:07:46.426Z,868
2018-06-01T15:09:47.864Z,796
2018-06-01T15:12:30.307Z,732
2018-06-01T15:14:31.784Z,756
2018-06-01T15:16:33.272Z,816
2018-06-01T15:18:34.705Z,804
2018-06-01T15:20:36.149Z,752
2018-06-01T15:22:37.669Z,744
2018-06-01T15:24:39.072Z,760
2018-06-01T15:26:40.600Z,776
2018-06-01T15:28:42.041Z,764
2018-06-01T15:30:43.480Z,732
2018-06-01T15:32:44.919Z,676
2018-06-01T15:34:46.488Z,636
2018-06-01T15:36:47.927Z,612
2018-06-01T15:38:49.365Z,600
2018-06-01T15:40:50.898Z,616
2018-06-01T15:42:52.263Z,644
2018-06-01T15:44:53.699Z,676
2018-06-01T15:46:55.143Z,676
2018-06-01T15:48:56.625Z,652
2018-06-01T15:50:58.257Z,644
2018-06-01T15:52:59.687Z,656
2018-06-01T15:55:01.281Z,664
2018-06-01T15:57:02.792Z,656
2018-06-01T15:59:04.248Z,660
2018-06-01T16:01:05.803Z,664
2018-06-01T16:03:07.250Z,632
2018-06-01T16:05:08.681Z,572
2018-06-01T16:07:10.116Z,520
2018-06-01T16:09:11.582Z,492
2018-06-01T16:11:13.043Z,472
2018-06-01T16:13:14.580Z,464
2018-06-01T16:15:16.041Z,460
2018-06-01T16:17:17.469Z,456
2018-06-01T16:19:19.115Z,444
2018-06-01T16:21:20.641Z,460
2018-06-01T16:23:22.171Z,492
2018-06-01T16:25:23.910Z,512
2018-06-01T16:27:25.444Z,520
2018-06-01T16:29:26.901Z,508
2018-06-01T16:31:28.516Z,516
2018-06-01T16:33:30.001Z,544
2018-06-01T16:35:31.669Z,568
2018-06-01T16:37:33.129Z,580
2018-06-01T16:39:34.683Z,584
2018-06-01T16:41:36.479Z,616
2018-06-01T16:43:37.941Z,588
2018-06-01T16:45:39.706Z,636
2018-06-01T16:47:41.418Z,648
2018-06-01T16:49:43.316Z,640
2018-06-01T16:51:44.861Z,608
2018-06-01T16:54:27.452Z,604
2018-06-01T16:56:28.906Z,532
2018-06-01T16:58:30.383Z,508
2018-06-01T17:00:31.825Z,496
2018-06-01T17:03:14.287Z,484
2018-06-01T17:05:15.751Z,468
2018-06-01T17:07:17.191Z,452
2018-06-01T17:09:18.628Z,404
2018-06-01T17:11:20.236Z,400
2018-06-01T17:13:21.642Z,396
2018-06-01T17:15:23.110Z,380
2018-06-01T17:17:24.566Z,356
2018-06-01T17:19:26.320Z,324
2018-06-01T17:21:27.742Z,256
2018-06-01T17:24:10.216Z,228
2018-06-01T17:26:11.653Z,196
2018-06-01T17:28:13.129Z,188
2018-06-01T17:30:14.594Z,184
2018-06-01T17:32:16.026Z,172
2018-06-01T17:34:58.533Z,168
2018-06-01T17:36:59.966Z,176
2018-06-01T17:39:01.404Z,184
2018-06-01T17:41:02.835Z,184
2018-06-01T17:43:45.274Z,168
2018-06-01T17:45:46.754Z,152
2018-06-01T17:47:48.185Z,132
2018-06-01T17:49:49.619Z,112
2018-06-01T17:51:51.149Z,88
2018-06-01T17:53:52.651Z,72
2018-06-01T17:55:54.085Z,60
2018-06-01T17:57:55.510Z,56
2018-06-01T17:59:56.996Z,52
2018-06-01T18:01:58.508Z,52
2018-06-01T18:03:59.949Z,56
2018-06-01T18:06:01.424Z,56
2018-06-01T18:08:02.886Z,68
2018-06-01T18:10:04.315Z,72
2018-06-01T18:12:05.766Z,72
2018-06-01T18:14:07.315Z,72
2018-06-01T18:16:08.894Z,68
2018-06-01T18:18:10.445Z,64
2018-06-01T18:20:11.910Z,68
2018-06-01T18:22:13.432Z,64
2018-06-01T18:24:14.921Z,68
2018-06-01T18:26:16.612Z,72
2018-06-01T18:28:18.197Z,84
2018-06-01T18:30:20.034Z,96
2018-06-01T18:32:21.627Z,104
2018-06-01T18:34:23.287Z,112
2018-06-01T18:36:24.984Z,116
2018-06-01T18:38:26.739Z,100
2018-06-01T18:40:28.604Z,140
2018-06-01T18:42:30.117Z,156
2018-06-01T18:44:31.817Z,128
2018-06-01T18:46:33.328Z,140
2018-06-01T18:48:35.107Z,148
2018-06-01T18:50:36.618Z,132
2018-06-01T18:52:38.106Z,100
2018-06-01T18:54:39.622Z,100
2018-06-01T18:56:41.406Z,96
2018-06-01T18:58:43.129Z,88
2018-06-01T19:00:44.614Z,76
2018-06-01T19:02:46.398Z,68
2018-06-01T19:04:48.164Z,60
2018-06-01T19:06:49.641Z,48
2018-06-01T19:08:51.150Z,40
2018-06-01T19:10:52.877Z,36
2018-06-01T19:12:54.687Z,32
2018-06-01T19:14:56.213Z,28
2018-06-01T19:16:57.722Z,24
2018-06-01T19:18:59.505Z,16
2018-06-01T19:21:01.021Z,12
2018-06-01T19:23:02.536Z,8
2018-06-01T19:25:04.053Z,4
2018-06-01T19:27:05.563Z,4
2018-06-01T19:29:07.074Z,4
2018-06-01T19:31:08.550Z,4
2018-06-01T19:33:10.326Z,4
2018-06-01T19:35:11.840Z,4
2018-06-01T19:37:13.364Z,4
2018-06-01T19:39:15.107Z,4
2018-06-01T19:41:16.933Z,0
2018-06-01T19:43:59.389Z,0
2018-06-01T19:46:00.851Z,0
2018-06-01T19:48:02.335Z,4
2018-06-01T19:50:03.749Z,0
2018-06-01T19:52:05.203Z,0
2018-06-01T19:54:47.627Z,0
2018-06-01T19:56:49.057Z,0
2018-06-01T19:58:50.480Z,0
2018-06-01T20:00:51.913Z,0
2018-06-01T20:02:53.332Z,0
2018-06-01T20:04:54.792Z,0
2018-06-01T20:06:56.193Z,0
2018-06-01T20:08:57.797Z,0
2018-06-01T20:10:59.210Z,0
2018-06-01T20:13:00.731Z,0
2018-06-01T20:15:02.154Z,0
2018-06-01T20:17:03.701Z,0
2018-06-01T20:19:05.392Z,0
2018-06-01T20:21:06.989Z,0
2018-06-01T20:23:49.599Z,0
2018-06-01T20:25:51.023Z,0
2018-06-01T20:27:52.454Z,0
2018-06-01T20:29:53.920Z,0
2018-06-01T20:31:55.318Z,0
2018-06-01T20:33:56.743Z,0
2018-06-01T20:35:58.165Z,0
2018-06-01T20:37:59.594Z,0
2018-06-01T20:40:01.022Z,0
2018-06-01T20:42:02.454Z,0
2018-06-01T20:44:44.991Z,0
2018-06-01T20:46:46.400Z,0
2018-06-01T20:48:47.831Z,0
2018-06-01T20:50:49.259Z,0
2018-06-01T20:52:50.732Z,0
2018-06-01T20:54:52.158Z,0
2018-06-01T20:56:53.586Z,0
2018-06-01T20:58:55.072Z,0
2018-06-01T21:00:56.471Z,0
2018-06-01T21:02:57.899Z,0
2018-06-01T21:04:59.399Z,0
2018-06-01T21:07:00.830Z,0
2018-06-01T21:09:02.275Z,0
2018-06-01T21:11:03.925Z,0
2018-06-01T21:13:05.752Z,0
2018-06-01T21:15:07.499Z,0
2018-06-01T21:17:09.016Z,0
2018-06-01T21:19:10.572Z,0
2018-06-01T21:21:12.120Z,0
2018-06-01T21:23:13.541Z,0
2018-06-01T21:25:15.115Z,0
2018-06-01T21:27:16.607Z,0
2018-06-01T21:29:18.206Z,0
2018-06-01T21:31:19.655Z,0
2018-06-01T21:33:21.101Z,0
2018-06-01T21:35:22.520Z,0
2018-06-01T21:37:23.950Z,0
2018-06-01T21:39:25.521Z,0
2018-06-01T21:41:26.923Z,0
2018-06-01T21:43:28.478Z,0
2018-06-01T21:45:30.032Z,0
2018-06-01T21:47:31.699Z,0
2018-06-01T21:49:33.546Z,0
2018-06-01T21:51:35.307Z,0
2018-06-01T21:53:36.874Z,0
2018-06-01T21:55:38.618Z,0
2018-06-01T21:57:40.217Z,0
2018-06-01T21:59:41.736Z,0
2018-06-01T22:01:43.279Z,0
2018-06-01T22:03:44.789Z,0
2018-06-01T22:05:46.435Z,0
2018-06-01T22:07:47.975Z,0
2018-06-01T22:09:49.707Z,0
2018-06-01T22:11:51.264Z,0
2018-06-01T22:13:52.780Z,0
2018-06-01T22:15:54.430Z,0
2018-06-01T22:17:55.985Z,0
2018-06-01T22:19:57.482Z,0
2018-06-01T22:21:59.018Z,0
2018-06-01T22:24:00.529Z,0
2018-06-01T22:26:01.963Z,0
2018-06-01T22:28:03.492Z,0
2018-06-01T22:30:04.997Z,0
2018-06-01T22:32:06.414Z,0
2018-06-01T22:34:48.833Z,0
2018-06-01T22:36:50.301Z,0
2018-06-01T22:38:51.727Z,0
2018-06-01T22:40:53.134Z,0
2018-06-01T22:42:54.625Z,0
2018-06-01T22:45:37.033Z,0
2018-06-01T22:47:38.556Z,0
2018-06-01T22:49:39.980Z,0
2018-06-01T22:51:41.409Z,0
2018-06-01T22:54:23.828Z,0
2018-06-01T22:56:25.292Z,0
2018-06-01T22:58:26.727Z,0
2018-06-01T23:00:28.190Z,0
2018-06-01T23:02:29.648Z,0
2018-06-01T23:05:12.058Z,0
2018-06-01T23:07:13.500Z,0
2018-06-01T23:09:14.923Z,0
2018-06-01T23:11:16.490Z,0
2018-06-01T23:13:59.907Z,0
2018-06-01T23:16:01.329Z,0
2018-06-01T23:18:02.756Z,0
2018-06-01T23:20:04.603Z,0
2018-06-01T23:22:06.030Z,0
2018-06-01T23:24:47.462Z,0
2018-06-01T23:26:48.880Z,0
2018-06-01T23:28:50.304Z,0
2018-06-01T23:30:52.289Z,0
2018-06-01T23:32:53.842Z,0
2018-06-01T23:35:36.845Z,0
2018-06-01T23:37:38.759Z,0
2018-06-01T23:39:40.225Z,0
2018-06-01T23:41:41.788Z,0
2018-06-01T23:44:24.445Z,0
2018-06-01T23:46:26.296Z,0
2018-06-01T23:48:28.207Z,0
2018-06-01T23:50:29.656Z,0
2018-06-01T23:52:31.082Z,0
2018-06-01T23:54:32.501Z,0
2018-06-01T23:56:34.417Z,0
2018-06-01T23:58:35.843Z,0
